Back to Top

Language: 

My Weather Underground Personal Weather Station Historical Data with Graphs...

Delerius Weather Station Historical Data
Daily Summary for May 31, 2017 Units:  Metric    English   Both
« Previous Day
Next Day »
Daily Weekly Monthly Yearly Custom
  High: Low: Average:
Temperature: 23.2 °C 7.1 °C 16.1 °C
Dew Point: 13.7 °C 5.7 °C 9.8 °C
Humidity: 92 % 45 % 69 %
Wind Speed: 11.3 km/h 0 km/h 4 km/h
Wind Gust: 22.5 km/h - -
Wind:- - WSW
Pressure: 1022.6 hPa 1018.5 hPa -
Precipitation: 0 mm    
Historical Graphs
 
 
Tabular Data for May 31, 2017
Time Temperature Dew Point Pressure Wind Wind Speed Wind Gust Humidity Rainfall Rate (Hourly) solar Conditions
00:04 10.8 °C 9.1 °C 1018.8 hPa WNW 3.2 km/h 9.7 km/h 89 % 0 mm 0 W/m2
00:09 10.6 °C 8.9 °C 1018.8 hPa WNW 3.2 km/h 9.7 km/h 89 % 0 mm 0 W/m2
00:14 10.4 °C 8.7 °C 1018.5 hPa West 6.4 km/h 11.3 km/h 89 % 0 mm 0 W/m2
00:19 10.3 °C 8.6 °C 1018.5 hPa West 6.4 km/h 11.3 km/h 89 % 0 mm 0 W/m2
00:24 10.2 °C 8.3 °C 1018.8 hPa WNW 4.8 km/h 11.3 km/h 88 % 0 mm 0 W/m2
00:29 10 °C 8.1 °C 1018.8 hPa NW 4.8 km/h 9.7 km/h 88 % 0 mm 0 W/m2
00:34 9.9 °C 8 °C 1018.8 hPa NW 4.8 km/h 11.3 km/h 88 % 0 mm 0 W/m2
00:39 9.9 °C 8 °C 1018.8 hPa NW 4.8 km/h 11.3 km/h 88 % 0 mm 0 W/m2
00:44 9.8 °C 7.9 °C 1019.2 hPa NW 1.6 km/h 8 km/h 88 % 0 mm 0 W/m2
00:49 9.7 °C 7.8 °C 1019.2 hPa Calm   6.4 km/h 88 % 0 mm 0 W/m2
00:55 9.7 °C 7.8 °C 1019.2 hPa Calm     88 % 0 mm 0 W/m2
01:00 9.6 °C 7.7 °C 1018.8 hPa Calm     88 % 0 mm 0 W/m2
01:05 9.4 °C 7.5 °C 1019.2 hPa Calm     88 % 0 mm 0 W/m2
01:10 9.3 °C 7.4 °C 1019.2 hPa Calm   3.2 km/h 88 % 0 mm 0 W/m2
01:15 9.2 °C 7.5 °C 1019.2 hPa NW 3.2 km/h 11.3 km/h 89 % 0 mm 0 W/m2
01:20 9.2 °C 7.3 °C 1018.8 hPa NW 8 km/h 14.5 km/h 88 % 0 mm 0 W/m2
01:25 9.4 °C 7.3 °C 1018.8 hPa NW 9.7 km/h 16.1 km/h 87 % 0 mm 0 W/m2
01:30 9.6 °C 7.4 °C 1018.8 hPa NW 11.3 km/h 16.1 km/h 86 % 0 mm 0 W/m2
01:35 9.7 °C 7.3 °C 1019.2 hPa NW 9.7 km/h 16.1 km/h 85 % 0 mm 0 W/m2
01:40 9.8 °C 7.4 °C 1019.2 hPa NW 8 km/h 16.1 km/h 85 % 0 mm 0 W/m2
01:45 9.9 °C 7.5 °C 1019.2 hPa NW 4.8 km/h 14.5 km/h 85 % 0 mm 0 W/m2
01:50 9.7 °C 7.3 °C 1019.2 hPa West 3.2 km/h 14.5 km/h 85 % 0 mm 0 W/m2
01:55 9.5 °C 7.3 °C 1019.5 hPa ESE 1.6 km/h 6.4 km/h 86 % 0 mm 0 W/m2
02:00 9.3 °C 7.1 °C 1019.5 hPa ESE 1.6 km/h 6.4 km/h 86 % 0 mm 0 W/m2
02:05 9.2 °C 7.2 °C 1019.5 hPa ESE 1.6 km/h 8 km/h 87 % 0 mm 0 W/m2
02:06 9.2 °C 7.2 °C 1019.5 hPa ESE 1.6 km/h 8 km/h 87 % 0 mm 0 W/m2
02:11 9.1 °C 7.1 °C 1019.5 hPa ENE 1.6 km/h 6.4 km/h 87 % 0 mm 0 W/m2
02:16 9.2 °C 7.2 °C 1019.5 hPa WSW 3.2 km/h 11.3 km/h 87 % 0 mm 0 W/m2
02:21 9.4 °C 7.2 °C 1019.5 hPa WSW 6.4 km/h 12.9 km/h 86 % 0 mm 0 W/m2
02:26 9.6 °C 7.2 °C 1019.5 hPa West 4.8 km/h 12.9 km/h 85 % 0 mm 0 W/m2
02:31 9.6 °C 7 °C 1019.5 hPa WNW 3.2 km/h 9.7 km/h 84 % 0 mm 0 W/m2
02:36 9.4 °C 6.8 °C 1019.5 hPa WNW 1.6 km/h 8 km/h 84 % 0 mm 0 W/m2
02:41 9.2 °C 6.8 °C 1019.9 hPa WNW 1.6 km/h 6.4 km/h 85 % 0 mm 0 W/m2
02:46 9.1 °C 6.7 °C 1019.9 hPa NW 3.2 km/h 9.7 km/h 85 % 0 mm 0 W/m2
02:51 9 °C 6.8 °C 1019.5 hPa NW 6.4 km/h 12.9 km/h 86 % 0 mm 0 W/m2
02:56 8.9 °C 6.7 °C 1019.5 hPa WNW 9.7 km/h 12.9 km/h 86 % 0 mm 0 W/m2
03:01 8.9 °C 6.7 °C 1019.5 hPa WNW 9.7 km/h 12.9 km/h 86 % 0 mm 0 W/m2
03:06 8.8 °C 6.6 °C 1019.5 hPa WNW 8 km/h 14.5 km/h 86 % 0 mm 0 W/m2
03:11 8.8 °C 6.6 °C 1019.5 hPa NW 4.8 km/h 14.5 km/h 86 % 0 mm 0 W/m2
03:16 8.8 °C 6.6 °C 1019.5 hPa NNW 3.2 km/h 9.7 km/h 86 % 0 mm 0 W/m2
03:21 8.7 °C 6.3 °C 1019.9 hPa NNW 1.6 km/h 9.7 km/h 85 % 0 mm 0 W/m2
03:27 8.7 °C 6.5 °C 1019.9 hPa Calm   6.4 km/h 86 % 0 mm 0 W/m2
03:32 8.7 °C 6.5 °C 1019.9 hPa Calm   3.2 km/h 86 % 0 mm 0 W/m2
03:37 8.6 °C 6.4 °C 1019.9 hPa Calm   3.2 km/h 86 % 0 mm 0 W/m2
03:42 8.5 °C 6.3 °C 1019.9 hPa Calm   1.6 km/h 86 % 0 mm 0 W/m2
03:47 8.4 °C 6.2 °C 1020.2 hPa Calm     86 % 0 mm 0 W/m2
03:52 8.2 °C 6 °C 1020.2 hPa Calm     86 % 0 mm 0 W/m2
03:57 8.1 °C 6.1 °C 1020.2 hPa NNE 1.6 km/h 6.4 km/h 87 % 0 mm 0 W/m2
04:02 8 °C 6.1 °C 1020.2 hPa NNE 1.6 km/h 6.4 km/h 88 % 0 mm 0 W/m2
04:07 7.9 °C 6.1 °C 1020.2 hPa Calm   4.8 km/h 88 % 0 mm 0 W/m2
04:12 7.8 °C 6.1 °C 1020.2 hPa Calm   3.2 km/h 89 % 0 mm 0 W/m2
04:17 7.7 °C 6 °C 1020.2 hPa Calm   3.2 km/h 89 % 0 mm 0 W/m2
04:22 7.6 °C 6.1 °C 1020.5 hPa Calm   3.2 km/h 90 % 0 mm 0 W/m2
04:27 7.5 °C 5.9 °C 1020.5 hPa Calm     90 % 0 mm 0 W/m2
04:32 7.4 °C 5.9 °C 1020.5 hPa Calm   6.4 km/h 90 % 0 mm 0 W/m2
04:37 7.3 °C 5.8 °C 1020.5 hPa Calm   6.4 km/h 90 % 0 mm 0 W/m2
04:42 7.3 °C 5.8 °C 1020.5 hPa Calm   4.8 km/h 90 % 0 mm 5 W/m2
04:47 7.2 °C 5.8 °C 1020.5 hPa Calm   4.8 km/h 91 % 0 mm 7 W/m2
04:52 7.2 °C 5.8 °C 1020.5 hPa Calm   1.6 km/h 91 % 0 mm 9 W/m2
04:57 7.2 °C 5.8 °C 1020.5 hPa Calm   1.6 km/h 91 % 0 mm 11 W/m2
05:02 7.2 °C 5.8 °C 1020.9 hPa Calm   1.6 km/h 91 % 0 mm 14 W/m2
05:07 7.1 °C 5.7 °C 1020.9 hPa Calm     91 % 0 mm 16 W/m2
05:12 7.1 °C 5.7 °C 1020.9 hPa Calm     91 % 0 mm 19 W/m2
05:17 7.1 °C 5.9 °C 1020.9 hPa Calm     92 % 0 mm 21 W/m2
05:22 7.1 °C 5.9 °C 1020.9 hPa Calm     92 % 0 mm 25 W/m2
05:23 7.1 °C 5.9 °C 1020.9 hPa Calm     92 % 0 mm 25 W/m2
05:28 7.1 °C 5.9 °C 1020.9 hPa Calm     92 % 0 mm 26 W/m2
05:33 7.1 °C 5.9 °C 1021.2 hPa Calm     92 % 0 mm 28 W/m2
05:38 7.1 °C 5.9 °C 1021.2 hPa Calm   3.2 km/h 92 % 0 mm 28 W/m2
05:43 7.1 °C 5.9 °C 1020.9 hPa NW 3.2 km/h 9.7 km/h 92 % 0 mm 28 W/m2
05:48 7.2 °C 6 °C 1021.2 hPa NW 6.4 km/h 9.7 km/h 92 % 0 mm 28 W/m2
05:53 7.3 °C 6.1 °C 1021.2 hPa NW 6.4 km/h 9.7 km/h 92 % 0 mm 30 W/m2
05:54 7.3 °C 6.1 °C 1021.2 hPa NW 6.4 km/h 9.7 km/h 92 % 0 mm 30 W/m2
06:04 7.7 °C 6.5 °C 1021.2 hPa NW 1.6 km/h 8 km/h 92 % 0 mm 91 W/m2
06:09 7.8 °C 6.6 °C 1021.2 hPa Calm   3.2 km/h 92 % 0 mm 44 W/m2
06:14 7.9 °C 6.7 °C 1021.2 hPa Calm   3.2 km/h 92 % 0 mm 30 W/m2
06:19 8 °C 6.6 °C 1021.6 hPa Calm     91 % 0 mm 35 W/m2
06:24 8.1 °C 6.7 °C 1021.6 hPa Calm     91 % 0 mm 33 W/m2
06:29 8.2 °C 6.8 °C 1021.6 hPa Calm     91 % 0 mm 39 W/m2
06:34 8.3 °C 6.9 °C 1021.6 hPa Calm     91 % 0 mm 47 W/m2
06:39 8.4 °C 7 °C 1021.6 hPa Calm     91 % 0 mm 40 W/m2
06:44 8.5 °C 7.1 °C 1021.6 hPa Calm     91 % 0 mm 49 W/m2
06:49 8.7 °C 7.5 °C 1021.6 hPa Calm   1.6 km/h 92 % 0 mm 33 W/m2
06:54 8.9 °C 7.5 °C 1021.9 hPa NW 1.6 km/h 4.8 km/h 91 % 0 mm 37 W/m2
06:59 9.1 °C 7.7 °C 1021.9 hPa NW 1.6 km/h 4.8 km/h 91 % 0 mm 35 W/m2
07:04 9.3 °C 7.9 °C 1021.9 hPa Calm   4.8 km/h 91 % 0 mm 39 W/m2
07:09 9.5 °C 8.1 °C 1021.9 hPa Calm     91 % 0 mm 40 W/m2
07:14 9.7 °C 8.3 °C 1022.2 hPa Calm   6.4 km/h 91 % 0 mm 204 W/m2
07:19 10.2 °C 8.6 °C 1022.2 hPa NW 1.6 km/h 6.4 km/h 90 % 0 mm 287 W/m2
07:24 10.8 °C 9.2 °C 1022.2 hPa NW 1.6 km/h 6.4 km/h 90 % 0 mm 302 W/m2
07:29 11.4 °C 9.3 °C 1021.9 hPa Calm   6.4 km/h 87 % 0 mm 309 W/m2
07:34 11.9 °C 9.4 °C 1021.9 hPa Calm   4.8 km/h 85 % 0 mm 302 W/m2
07:39 12.4 °C 9.6 °C 1022.2 hPa NW 1.6 km/h 6.4 km/h 83 % 0 mm 320 W/m2
07:44 12.8 °C 9.8 °C 1022.2 hPa NW 1.6 km/h 6.4 km/h 82 % 0 mm 341 W/m2
07:49 13.2 °C 9.6 °C 1022.2 hPa NW 1.6 km/h 6.4 km/h 79 % 0 mm 378 W/m2
07:54 13.4 °C 9.7 °C 1022.2 hPa NW 1.6 km/h 6.4 km/h 78 % 0 mm 392 W/m2
07:59 13.9 °C 9.6 °C 1022.2 hPa NW 1.6 km/h 6.4 km/h 75 % 0 mm 406 W/m2
08:04 14.2 °C 9.4 °C 1022.2 hPa WNW 3.2 km/h 8 km/h 73 % 0 mm 432 W/m2
08:09 14.1 °C 9.1 °C 1022.2 hPa WNW 3.2 km/h 8 km/h 72 % 0 mm 439 W/m2
08:14 14.2 °C 9 °C 1022.6 hPa West 1.6 km/h 8 km/h 71 % 0 mm 438 W/m2
08:20 14.6 °C 9.6 °C 1022.6 hPa West 1.6 km/h 8 km/h 72 % 0 mm 438 W/m2
08:25 15.3 °C 9.4 °C 1022.6 hPa NW 3.2 km/h 9.7 km/h 68 % 0 mm 436 W/m2
08:30 15.7 °C 9.4 °C 1022.2 hPa NW 3.2 km/h 9.7 km/h 66 % 0 mm 512 W/m2
08:35 16 °C 9.4 °C 1022.2 hPa WNW 1.6 km/h 9.7 km/h 65 % 0 mm 531 W/m2
08:40 16.3 °C 9.2 °C 1022.2 hPa WNW 1.6 km/h 9.7 km/h 63 % 0 mm 533 W/m2
08:45 16.8 °C 9.2 °C 1022.6 hPa Calm   3.2 km/h 61 % 0 mm 529 W/m2
08:50 17.1 °C 9.3 °C 1022.6 hPa NW 3.2 km/h 9.7 km/h 60 % 0 mm 568 W/m2
08:55 16.8 °C 9.2 °C 1022.6 hPa WNW 4.8 km/h 9.7 km/h 61 % 0 mm 550 W/m2
09:00 16.4 °C 8.8 °C 1022.6 hPa West 4.8 km/h 11.3 km/h 61 % 0 mm 564 W/m2
09:05 16.3 °C 9.2 °C 1022.2 hPa West 3.2 km/h 11.3 km/h 63 % 0 mm 529 W/m2
09:10 16.7 °C 9.6 °C 1022.2 hPa NNW 1.6 km/h 9.7 km/h 63 % 0 mm 582 W/m2
09:15 16.8 °C 9.2 °C 1022.6 hPa North 3.2 km/h 11.3 km/h 61 % 0 mm 606 W/m2
09:20 16.9 °C 9.8 °C 1022.6 hPa North 3.2 km/h 11.3 km/h 63 % 0 mm 636 W/m2
09:25 16.9 °C 9.6 °C 1022.6 hPa WNW 3.2 km/h 9.7 km/h 62 % 0 mm 603 W/m2
09:30 17.2 °C 9.6 °C 1022.2 hPa West 3.2 km/h 11.3 km/h 61 % 0 mm 606 W/m2
09:35 17.5 °C 9.4 °C 1022.2 hPa West 1.6 km/h 11.3 km/h 59 % 0 mm 670 W/m2
09:40 17.5 °C 9.7 °C 1022.2 hPa WSW 3.2 km/h 9.7 km/h 60 % 0 mm 642 W/m2
09:45 17.5 °C 9.9 °C 1022.2 hPa WSW 3.2 km/h 9.7 km/h 61 % 0 mm 527 W/m2
09:50 17.3 °C 9.7 °C 1022.2 hPa West 3.2 km/h 9.7 km/h 61 % 0 mm 664 W/m2
09:55 17.3 °C 9.7 °C 1022.2 hPa WNW 4.8 km/h 12.9 km/h 61 % 0 mm 693 W/m2
10:00 17.6 °C 10 °C 1022.2 hPa NW 4.8 km/h 12.9 km/h 61 % 0 mm 763 W/m2
10:05 17.6 °C 9.5 °C 1022.2 hPa North 4.8 km/h 11.3 km/h 59 % 0 mm 661 W/m2
10:10 17.7 °C 9.3 °C 1022.2 hPa NNW 3.2 km/h 11.3 km/h 58 % 0 mm 710 W/m2
10:15 17.7 °C 9.6 °C 1022.2 hPa West 4.8 km/h 12.9 km/h 59 % 0 mm 673 W/m2
10:20 17.8 °C 9.7 °C 1022.2 hPa West 4.8 km/h 12.9 km/h 59 % 0 mm 791 W/m2
10:25 18.1 °C 9.4 °C 1022.2 hPa West 3.2 km/h 11.3 km/h 57 % 0 mm 844 W/m2
10:30 18.1 °C 9.4 °C 1022.2 hPa NW 1.6 km/h 9.7 km/h 57 % 0 mm 793 W/m2
10:35 18.1 °C 9.2 °C 1022.2 hPa North 3.2 km/h 9.7 km/h 56 % 0 mm 740 W/m2
10:40 18.2 °C 9.6 °C 1022.2 hPa NNW 3.2 km/h 8 km/h 57 % 0 mm 877 W/m2
10:45 18.2 °C 9.3 °C 1022.2 hPa West 1.6 km/h 8 km/h 56 % 0 mm 823 W/m2
10:50 18.3 °C 9.6 °C 1022.2 hPa WNW 1.6 km/h 9.7 km/h 57 % 0 mm 758 W/m2
10:52 18.4 °C 9.4 °C 1022.2 hPa NW 1.6 km/h 9.7 km/h 56 % 0 mm 782 W/m2
10:57 18.6 °C 9.4 °C 1022.2 hPa SW 3.2 km/h 11.3 km/h 55 % 0 mm 872 W/m2
11:02 18.2 °C 9.3 °C 1022.2 hPa SSW 4.8 km/h 12.9 km/h 56 % 0 mm 939 W/m2
11:07 18.1 °C 9.9 °C 1022.2 hPa SSW 4.8 km/h 12.9 km/h 59 % 0 mm 830 W/m2
11:12 18.1 °C 9.4 °C 1022.2 hPa South 4.8 km/h 12.9 km/h 57 % 0 mm 851 W/m2
11:17 18.1 °C 9.2 °C 1021.9 hPa South 4.8 km/h 12.9 km/h 56 % 0 mm 805 W/m2
11:22 18.3 °C 9.6 °C 1021.9 hPa SE 3.2 km/h 9.7 km/h 57 % 0 mm 842 W/m2
11:27 18.5 °C 9.6 °C 1021.9 hPa ESE 3.2 km/h 9.7 km/h 56 % 0 mm 459 W/m2
11:32 18.5 °C 9.8 °C 1021.9 hPa SSW 3.2 km/h 9.7 km/h 57 % 0 mm 355 W/m2
11:37 18.7 °C 10 °C 1021.9 hPa WSW 4.8 km/h 9.7 km/h 57 % 0 mm 926 W/m2
11:42 18.8 °C 9.3 °C 1021.9 hPa WNW 4.8 km/h 9.7 km/h 54 % 0 mm 926 W/m2
11:47 18.7 °C 9.7 °C 1021.9 hPa WSW 4.8 km/h 14.5 km/h 56 % 0 mm 849 W/m2
11:52 18.7 °C 9.7 °C 1021.9 hPa SW 6.4 km/h 14.5 km/h 56 % 0 mm 893 W/m2
11:57 18.6 °C 9.4 °C 1021.9 hPa South 4.8 km/h 9.7 km/h 55 % 0 mm 729 W/m2
12:02 18.6 °C 9.4 °C 1021.9 hPa NNE 3.2 km/h 8 km/h 55 % 0 mm 413 W/m2
12:07 18.8 °C 9.6 °C 1021.9 hPa NW 1.6 km/h 6.4 km/h 55 % 0 mm 856 W/m2
12:12 18.8 °C 9 °C 1021.9 hPa WSW 1.6 km/h 6.4 km/h 53 % 0 mm 729 W/m2
12:17 19.1 °C 10.1 °C 1021.9 hPa Calm   6.4 km/h 56 % 0 mm 768 W/m2
12:22 19.2 °C 9.9 °C 1021.9 hPa SSW 1.6 km/h 9.7 km/h 55 % 0 mm 703 W/m2
12:27 19.2 °C 9.7 °C 1021.9 hPa SW 3.2 km/h 9.7 km/h 54 % 0 mm 684 W/m2
12:32 19.4 °C 9.8 °C 1021.9 hPa West 1.6 km/h 9.7 km/h 54 % 0 mm 670 W/m2
12:37 19.5 °C 9.9 °C 1021.9 hPa South 4.8 km/h 11.3 km/h 54 % 0 mm 615 W/m2
12:42 19.6 °C 9.4 °C 1021.9 hPa SE 6.4 km/h 12.9 km/h 52 % 0 mm 603 W/m2
12:47 19.7 °C 9.3 °C 1021.9 hPa SE 4.8 km/h 12.9 km/h 51 % 0 mm 661 W/m2
12:52 19.7 °C 9.3 °C 1021.9 hPa SSE 1.6 km/h 8 km/h 51 % 0 mm 677 W/m2
12:57 19.8 °C 9.7 °C 1021.9 hPa West 3.2 km/h 9.7 km/h 52 % 0 mm 779 W/m2
13:02 20.1 °C 9.7 °C 1021.9 hPa WNW 4.8 km/h 9.7 km/h 51 % 0 mm 837 W/m2
13:07 20.3 °C 9.8 °C 1021.9 hPa West 3.2 km/h 9.7 km/h 51 % 0 mm 737 W/m2
13:12 20.4 °C 9.3 °C 1021.9 hPa SW 4.8 km/h 16.1 km/h 49 % 0 mm 722 W/m2
13:17 20.3 °C 8.9 °C 1021.9 hPa SSW 3.2 km/h 16.1 km/h 48 % 0 mm 984 W/m2
13:22 20.5 °C 9.7 °C 1021.9 hPa South 6.4 km/h 17.7 km/h 50 % 0 mm 979 W/m2
13:27 20.5 °C 10 °C 1021.6 hPa South 9.7 km/h 17.7 km/h 51 % 0 mm 1004 W/m2
13:32 20.6 °C 10.1 °C 1021.9 hPa South 9.7 km/h 17.7 km/h 51 % 0 mm 1114 W/m2
13:37 20.7 °C 10.2 °C 1021.9 hPa South 11.3 km/h 19.3 km/h 51 % 0 mm 332 W/m2
13:42 20.6 °C 9.8 °C 1021.6 hPa SSW 9.7 km/h 19.3 km/h 50 % 0 mm 531 W/m2
13:47 20.5 °C 10.3 °C 1021.6 hPa SSW 8 km/h 14.5 km/h 52 % 0 mm 1104 W/m2
13:52 20.6 °C 10.4 °C 1021.6 hPa South 8 km/h 16.1 km/h 52 % 0 mm 1007 W/m2
13:57 20.7 °C 10.8 °C 1021.6 hPa SSW 9.7 km/h 16.1 km/h 53 % 0 mm 1004 W/m2
14:02 20.9 °C 10.1 °C 1021.6 hPa SW 9.7 km/h 22.5 km/h 50 % 0 mm 1035 W/m2
14:04 20.9 °C 10.1 °C 1021.6 hPa SSW 9.7 km/h 22.5 km/h 50 % 0 mm 1016 W/m2
14:09 21.1 °C 9.9 °C 1021.6 hPa SW 9.7 km/h 19.3 km/h 49 % 0 mm 997 W/m2
14:14 21 °C 9.9 °C 1021.6 hPa SW 9.7 km/h 19.3 km/h 49 % 0 mm 981 W/m2
14:19 21 °C 9.9 °C 1021.6 hPa SSW 4.8 km/h 16.1 km/h 49 % 0 mm 1060 W/m2
14:24 21.2 °C 10.1 °C 1021.2 hPa SSW 4.8 km/h 12.9 km/h 49 % 0 mm 1032 W/m2
14:29 21.5 °C 10.6 °C 1021.6 hPa SW 8 km/h 16.1 km/h 50 % 0 mm 250 W/m2
14:34 21.6 °C 10.1 °C 1021.2 hPa WSW 8 km/h 16.1 km/h 48 % 0 mm 1025 W/m2
14:39 21.5 °C 10.3 °C 1021.2 hPa South 6.4 km/h 12.9 km/h 49 % 0 mm 947 W/m2
14:44 21.6 °C 10.7 °C 1021.2 hPa South 9.7 km/h 19.3 km/h 50 % 0 mm 940 W/m2
14:49 21.8 °C 10.9 °C 1021.2 hPa SSW 11.3 km/h 19.3 km/h 50 % 0 mm 919 W/m2
14:54 22 °C 10.5 °C 1021.2 hPa SW 8 km/h 17.7 km/h 48 % 0 mm 930 W/m2
14:59 22.1 °C 10.6 °C 1021.2 hPa SW 6.4 km/h 16.1 km/h 48 % 0 mm 330 W/m2
15:04 21.8 °C 10.6 °C 1021.2 hPa SSW 6.4 km/h 16.1 km/h 49 % 0 mm 1007 W/m2
15:09 21.7 °C 10.2 °C 1021.2 hPa SW 8 km/h 17.7 km/h 48 % 0 mm 1007 W/m2
15:14 21.8 °C 10.6 °C 1021.2 hPa SW 9.7 km/h 17.7 km/h 49 % 0 mm 900 W/m2
15:19 21.9 °C 11 °C 1020.9 hPa WSW 8 km/h 16.1 km/h 50 % 0 mm 185 W/m2
15:24 22.1 °C 11.2 °C 1020.9 hPa West 6.4 km/h 12.9 km/h 50 % 0 mm 838 W/m2
15:29 22.2 °C 11 °C 1020.9 hPa West 3.2 km/h 11.3 km/h 49 % 0 mm 844 W/m2
15:34 22.1 °C 10.6 °C 1020.9 hPa SW 4.8 km/h 12.9 km/h 48 % 0 mm 265 W/m2
15:39 21.8 °C 10.3 °C 1020.9 hPa SSW 6.4 km/h 12.9 km/h 48 % 0 mm 831 W/m2
15:44 21.9 °C 11 °C 1020.9 hPa South 4.8 km/h 12.9 km/h 50 % 0 mm 812 W/m2
15:49 22.1 °C 10.6 °C 1020.9 hPa SSW 8 km/h 20.9 km/h 48 % 0 mm 772 W/m2
15:54 22.2 °C 10.7 °C 1020.9 hPa SSW 8 km/h 20.9 km/h 48 % 0 mm 749 W/m2
15:59 22.3 °C 10.8 °C 1020.9 hPa SW 8 km/h 16.1 km/h 48 % 0 mm 782 W/m2
16:04 22.7 °C 10.8 °C 1020.9 hPa West 8 km/h 16.1 km/h 47 % 0 mm 775 W/m2
16:09 23.1 °C 10.5 °C 1020.9 hPa WNW 8 km/h 17.7 km/h 45 % 0 mm 772 W/m2
16:14 23.2 °C 10.9 °C 1020.5 hPa West 6.4 km/h 17.7 km/h 46 % 0 mm 763 W/m2
16:15 23.1 °C 10.5 °C 1020.5 hPa West 6.4 km/h 14.5 km/h 45 % 0 mm 756 W/m2
16:20 22.9 °C 10.7 °C 1020.5 hPa WSW 4.8 km/h 14.5 km/h 46 % 0 mm 715 W/m2
16:25 23 °C 11.1 °C 1020.5 hPa WNW 1.6 km/h 8 km/h 47 % 0 mm 719 W/m2
16:30 23.1 °C 11.2 °C 1020.2 hPa WNW 1.6 km/h 8 km/h 47 % 0 mm 696 W/m2
16:35 23.1 °C 11.2 °C 1020.5 hPa SSW 4.8 km/h 20.9 km/h 47 % 0 mm 677 W/m2
16:40 22.8 °C 11.2 °C 1020.2 hPa SSW 9.7 km/h 20.9 km/h 48 % 0 mm 661 W/m2
16:45 22.6 °C 11.1 °C 1020.5 hPa SSW 9.7 km/h 17.7 km/h 48 % 0 mm 652 W/m2
16:50 22.5 °C 10.9 °C 1020.5 hPa SSW 6.4 km/h 14.5 km/h 48 % 0 mm 134 W/m2
16:55 22.2 °C 11 °C 1020.2 hPa SW 6.4 km/h 12.9 km/h 49 % 0 mm 158 W/m2
17:00 21.9 °C 11 °C 1020.5 hPa SW 8 km/h 16.1 km/h 50 % 0 mm 330 W/m2
17:06 21.8 °C 11.2 °C 1020.2 hPa SW 8 km/h 16.1 km/h 51 % 0 mm 176 W/m2
17:11 21.7 °C 11.1 °C 1020.2 hPa SW 3.2 km/h 11.3 km/h 51 % 0 mm 171 W/m2
17:16 21.8 °C 11.2 °C 1020.2 hPa West 1.6 km/h 6.4 km/h 51 % 0 mm 603 W/m2
17:21 22.1 °C 11.5 °C 1020.2 hPa WSW 3.2 km/h 8 km/h 51 % 0 mm 554 W/m2
17:26 22.2 °C 11.9 °C 1020.2 hPa SSW 4.8 km/h 11.3 km/h 52 % 0 mm 529 W/m2
17:31 22.2 °C 11.9 °C 1020.2 hPa SSW 4.8 km/h 11.3 km/h 52 % 0 mm 172 W/m2
17:36 22 °C 11.7 °C 1020.2 hPa SW 8 km/h 16.1 km/h 52 % 0 mm 165 W/m2
17:41 21.7 °C 12 °C 1020.2 hPa SW 8 km/h 16.1 km/h 54 % 0 mm 183 W/m2
17:46 21.5 °C 11.8 °C 1020.2 hPa SW 8 km/h 11.3 km/h 54 % 0 mm 137 W/m2
17:51 21.3 °C 11.9 °C 1020.2 hPa SW 6.4 km/h 9.7 km/h 55 % 0 mm 125 W/m2
17:56 21.2 °C 11.8 °C 1020.2 hPa SW 8 km/h 12.9 km/h 55 % 0 mm 148 W/m2
18:01 21.1 °C 12 °C 1020.2 hPa SW 6.4 km/h 12.9 km/h 56 % 0 mm 121 W/m2
18:06 21.1 °C 12 °C 1020.2 hPa SW 4.8 km/h 9.7 km/h 56 % 0 mm 95 W/m2
18:11 21.1 °C 12 °C 1019.9 hPa SW 4.8 km/h 9.7 km/h 56 % 0 mm 114 W/m2
18:16 21 °C 11.9 °C 1019.9 hPa SW 4.8 km/h 8 km/h 56 % 0 mm 139 W/m2
18:21 20.9 °C 11.5 °C 1019.9 hPa SW 4.8 km/h 8 km/h 55 % 0 mm 162 W/m2
18:26 21 °C 11.3 °C 1019.9 hPa SW 3.2 km/h 8 km/h 54 % 0 mm 149 W/m2
18:31 21.1 °C 11.7 °C 1019.9 hPa SW 1.6 km/h 6.4 km/h 55 % 0 mm 162 W/m2
18:36 21.2 °C 11.5 °C 1020.2 hPa SW 1.6 km/h 6.4 km/h 54 % 0 mm 156 W/m2
18:39 21.2 °C 11.8 °C 1020.2 hPa SW 1.6 km/h 12.9 km/h 55 % 0 mm 149 W/m2
18:44 21.2 °C 12.3 °C 1020.2 hPa SW 6.4 km/h 14.5 km/h 57 % 0 mm 95 W/m2
18:49 20.9 °C 12.1 °C 1020.2 hPa SW 9.7 km/h 14.5 km/h 57 % 0 mm 111 W/m2
18:54 20.8 °C 12.5 °C 1020.2 hPa SW 9.7 km/h 14.5 km/h 59 % 0 mm 167 W/m2
18:59 20.8 °C 12.5 °C 1019.9 hPa SW 6.4 km/h 12.9 km/h 59 % 0 mm 176 W/m2
19:05 20.7 °C 12.7 °C 1019.9 hPa SW 6.4 km/h 14.5 km/h 60 % 0 mm 132 W/m2
19:09 20.6 °C 12.6 °C 1019.9 hPa SSW 8 km/h 14.5 km/h 60 % 0 mm 125 W/m2
19:15 20.5 °C 12.4 °C 1019.9 hPa SW 8 km/h 12.9 km/h 60 % 0 mm 111 W/m2
19:20 20.4 °C 12.9 °C 1019.9 hPa SW 8 km/h 12.9 km/h 62 % 0 mm 111 W/m2
19:21 20.4 °C 12.9 °C 1019.9 hPa SW 8 km/h 12.9 km/h 62 % 0 mm 109 W/m2
19:26 20.3 °C 12.8 °C 1019.9 hPa SW 6.4 km/h 11.3 km/h 62 % 0 mm 84 W/m2
19:31 20.2 °C 12.9 °C 1019.9 hPa SW 6.4 km/h 11.3 km/h 63 % 0 mm 76 W/m2
19:36 20.1 °C 12.8 °C 1019.9 hPa SW 6.4 km/h 12.9 km/h 63 % 0 mm 67 W/m2
19:41 20 °C 13 °C 1020.2 hPa SW 8 km/h 12.9 km/h 64 % 0 mm 49 W/m2
19:46 19.9 °C 12.9 °C 1019.9 hPa SW 6.4 km/h 11.3 km/h 64 % 0 mm 39 W/m2
19:51 19.8 °C 13.1 °C 1020.2 hPa SW 6.4 km/h 12.9 km/h 65 % 0 mm 42 W/m2
19:56 19.8 °C 13.1 °C 1019.9 hPa SW 8 km/h 17.7 km/h 65 % 0 mm 42 W/m2
20:01 19.7 °C 12.9 °C 1019.9 hPa SW 9.7 km/h 17.7 km/h 65 % 0 mm 37 W/m2
20:06 19.6 °C 12.8 °C 1020.2 hPa SW 9.7 km/h 12.9 km/h 65 % 0 mm 28 W/m2
20:11 19.6 °C 13.1 °C 1020.2 hPa SW 8 km/h 12.9 km/h 66 % 0 mm 32 W/m2
20:16 19.5 °C 13 °C 1019.9 hPa SW 6.4 km/h 11.3 km/h 66 % 0 mm 37 W/m2
20:21 19.5 °C 13 °C 1020.2 hPa SSW 6.4 km/h 12.9 km/h 66 % 0 mm 39 W/m2
20:26 19.5 °C 12.7 °C 1019.9 hPa SSW 8 km/h 16.1 km/h 65 % 0 mm 37 W/m2
20:31 19.4 °C 12.9 °C 1019.9 hPa SSW 6.4 km/h 16.1 km/h 66 % 0 mm 37 W/m2
20:36 19.4 °C 12.9 °C 1019.9 hPa SSW 4.8 km/h 11.3 km/h 66 % 0 mm 33 W/m2
20:41 19.4 °C 12.9 °C 1020.2 hPa SSW 1.6 km/h 8 km/h 66 % 0 mm 25 W/m2
20:46 19.4 °C 12.7 °C 1020.2 hPa South 3.2 km/h 8 km/h 65 % 0 mm 18 W/m2
20:51 19.4 °C 12.7 °C 1020.2 hPa South 6.4 km/h 12.9 km/h 65 % 0 mm 12 W/m2
20:56 19.3 °C 12.6 °C 1020.2 hPa SSE 6.4 km/h 12.9 km/h 65 % 0 mm 9 W/m2
21:01 19.3 °C 12.8 °C 1020.2 hPa SSE 4.8 km/h 9.7 km/h 66 % 0 mm 7 W/m2
21:07 19.3 °C 12.8 °C 1020.2 hPa South 3.2 km/h 11.3 km/h 66 % 0 mm 5 W/m2
21:12 19.2 °C 12.9 °C 1020.2 hPa SSW 4.8 km/h 11.3 km/h 67 % 0 mm 0 W/m2
21:17 19.1 °C 12.8 °C 1020.2 hPa SSW 4.8 km/h 11.3 km/h 67 % 0 mm 0 W/m2
21:22 19 °C 12.9 °C 1020.2 hPa SW 4.8 km/h 11.3 km/h 68 % 0 mm 0 W/m2
21:27 18.9 °C 12.9 °C 1020.2 hPa SW 3.2 km/h 11.3 km/h 68 % 0 mm 0 W/m2
21:32 18.8 °C 13 °C 1020.2 hPa SW 1.6 km/h 6.4 km/h 69 % 0 mm 0 W/m2
21:37 18.8 °C 13 °C 1020.5 hPa SW 1.6 km/h 6.4 km/h 69 % 0 mm 0 W/m2
21:42 18.8 °C 13.2 °C 1020.5 hPa SW 1.6 km/h 8 km/h 70 % 0 mm 0 W/m2
21:47 18.7 °C 13.3 °C 1020.5 hPa SW 1.6 km/h 8 km/h 71 % 0 mm 0 W/m2
21:52 18.7 °C 13.3 °C 1020.5 hPa SW 1.6 km/h 8 km/h 71 % 0 mm 0 W/m2
21:57 18.6 °C 13.2 °C 1020.5 hPa South 1.6 km/h 11.3 km/h 71 % 0 mm 0 W/m2
22:02 18.5 °C 13.2 °C 1020.5 hPa South 1.6 km/h 11.3 km/h 71 % 0 mm 0 W/m2
22:07 18.4 °C 13.1 °C 1020.5 hPa South 1.6 km/h 8 km/h 71 % 0 mm 0 W/m2
22:12 18.4 °C 13.3 °C 1020.2 hPa South 1.6 km/h 8 km/h 72 % 0 mm 0 W/m2
22:17 18.4 °C 13.3 °C 1020.5 hPa South 3.2 km/h 9.7 km/h 72 % 0 mm 0 W/m2
22:22 18.4 °C 13.4 °C 1020.5 hPa South 4.8 km/h 9.7 km/h 73 % 0 mm 0 W/m2
22:27 18.4 °C 13.4 °C 1020.5 hPa South 4.8 km/h 9.7 km/h 73 % 0 mm 0 W/m2
22:32 18.4 °C 13.4 °C 1020.5 hPa SSW 3.2 km/h 9.7 km/h 73 % 0 mm 0 W/m2
22:37 18.4 °C 13.4 °C 1020.5 hPa SSW 1.6 km/h 6.4 km/h 73 % 0 mm 0 W/m2
22:42 18.3 °C 13.6 °C 1020.5 hPa SSW 3.2 km/h 9.7 km/h 74 % 0 mm 0 W/m2
22:47 18.2 °C 13.5 °C 1020.5 hPa SSW 4.8 km/h 11.3 km/h 74 % 0 mm 0 W/m2
22:52 18.2 °C 13.7 °C 1020.5 hPa SSW 6.4 km/h 11.3 km/h 75 % 0 mm 0 W/m2
22:58 18.1 °C 13.6 °C 1020.5 hPa SSW 4.8 km/h 9.7 km/h 75 % 0 mm 0 W/m2
23:03 18.1 °C 13.6 °C 1020.5 hPa South 3.2 km/h 9.7 km/h 75 % 0 mm 0 W/m2
23:08 18.1 °C 13.6 °C 1020.5 hPa South 1.6 km/h 6.4 km/h 75 % 0 mm 0 W/m2
23:13 18.1 °C 13.6 °C 1020.2 hPa Calm   3.2 km/h 75 % 0 mm 0 W/m2
23:18 18 °C 13.5 °C 1020.2 hPa Calm   1.6 km/h 75 % 0 mm 0 W/m2
23:23 18.1 °C 13.6 °C 1020.2 hPa Calm     75 % 0 mm 0 W/m2
23:28 18 °C 13.7 °C 1020.2 hPa Calm     76 % 0 mm 0 W/m2
23:33 18 °C 13.7 °C 1020.2 hPa Calm     76 % 0 mm 0 W/m2
23:38 17.9 °C 13.6 °C 1020.2 hPa Calm     76 % 0 mm 0 W/m2
23:43 17.9 °C 13.6 °C 1020.2 hPa Calm   1.6 km/h 76 % 0 mm 0 W/m2
23:48 17.8 °C 13.7 °C 1020.2 hPa Calm   1.6 km/h 77 % 0 mm 0 W/m2
23:53 17.8 °C 13.7 °C 1020.2 hPa Calm     77 % 0 mm 0 W/m2
23:58 17.7 °C 13.6 °C 1020.2 hPa Calm     77 % 0 mm 0 W/m2
Delerius-Weather
Compliments of Weather Underground - 2.25 mb

Data updates at regular intervals.